Time;durP1;ratioP1;P1;durP2;ratioP2;P2;SDS_P1;SDS_P2;PMS_P1;PMS_P2;Temp;Humidity;BMP_temperature;BMP_pressure;BME280_temperature;BME280_humidity;BME280_pressure;Samples;Min_cycle;Max_cycle;Signal;HPM_P1;HPM_P2
2021/06/16 00:03:31;;;;;;;13.48;6.30;;;;;;;13.60;92.31;100772.59;715482;1202;113918;-81
2021/06/16 00:18:33;;;;;;;5.30;2.60;;;;;;;13.47;93.19;100794.83;715150;1177;114361;-82
2021/06/16 00:33:36;;;;;;;8.08;3.30;;;;;;;13.30;95.11;100798.13;714648;1202;115350;-81
2021/06/16 00:48:38;;;;;;;10.00;3.77;;;;;;;13.03;96.06;100809.39;715262;1200;114474;-82
2021/06/16 01:03:51;;;;;;;9.55;5.30;;;;;;;12.86;97.17;100811.73;715420;1202;115888;-81
2021/06/16 01:18:56;;;;;;;11.78;4.48;;;;;;;12.60;98.11;100837.73;713788;1177;114150;-82
2021/06/16 01:34:00;;;;;;;8.03;3.55;;;;;;;12.26;98.86;100838.03;713667;1202;113989;-81
2021/06/16 01:49:03;;;;;;;6.75;3.65;;;;;;;12.14;100.00;100826.77;713760;1205;114002;-81
2021/06/16 02:04:06;;;;;;;8.00;3.90;;;;;;;11.82;100.00;100827.70;713569;1202;114063;-82
2021/06/16 02:19:14;;;;;;;7.65;3.40;;;;;;;11.45;100.00;100828.98;713742;1185;114053;-81
2021/06/16 02:34:16;;;;;;;9.90;3.67;;;;;;;11.26;100.00;100836.75;713419;1194;113949;-81
2021/06/16 02:49:28;;;;;;;11.90;4.10;;;;;;;11.15;100.00;100843.71;713603;1177;114374;-81
2021/06/16 03:04:30;;;;;;;13.53;4.73;;;;;;;11.36;100.00;100837.63;713669;1206;115367;-81
2021/06/16 03:19:33;;;;;;;10.20;4.05;;;;;;;11.44;100.00;100844.89;713777;1202;115860;-81
2021/06/16 03:34:36;;;;;;;8.03;4.75;;;;;;;11.61;100.00;100832.97;713629;1201;115740;-80
2021/06/16 03:49:42;;;;;;;8.37;5.00;;;;;;;11.93;100.00;100824.16;713736;1203;114569;-81
2021/06/16 04:04:45;;;;;;;9.47;5.50;;;;;;;12.40;100.00;100845.56;713902;1204;114090;-81
2021/06/16 04:19:50;;;;;;;10.15;6.13;;;;;;;12.89;100.00;100863.28;714048;1202;114321;-81
2021/06/16 04:34:52;;;;;;;18.67;8.63;;;;;;;13.41;100.00;100874.44;713927;1202;114191;-82
2021/06/16 04:49:54;;;;;;;60.77;30.87;;;;;;;13.97;100.00;100864.90;713926;1202;115166;-81
2021/06/16 05:04:56;;;;;;;11.98;6.40;;;;;;;14.55;100.00;100878.84;717062;1165;114784;-73
2021/06/16 05:19:58;;;;;;;13.80;4.17;;;;;;;15.32;100.00;100881.14;714532;1202;115540;-76
2021/06/16 05:35:01;;;;;;;3.80;2.40;;;;;;;15.82;98.11;100881.58;715966;1183;114383;-80
2021/06/16 05:50:04;;;;;;;5.60;2.85;;;;;;;16.57;95.36;100880.97;715255;1202;113553;-81
2021/06/16 06:05:07;;;;;;;11.13;4.30;;;;;;;16.94;93.30;100898.33;715966;1205;113992;-80
2021/06/16 06:20:10;;;;;;;22.88;12.75;;;;;;;17.39;91.73;100912.97;715061;1202;114408;-78
2021/06/16 06:35:13;;;;;;;7.35;2.58;;;;;;;17.88;88.57;100911.30;714073;1202;114266;-79
2021/06/16 06:50:17;;;;;;;8.75;2.10;;;;;;;18.23;83.46;100911.94;715641;1202;114945;-77
2021/06/16 07:05:19;;;;;;;6.87;1.50;;;;;;;18.72;78.69;100909.08;718587;1200;113912;-77
2021/06/16 07:20:21;;;;;;;6.00;1.93;;;;;;;19.27;77.32;100920.58;720888;1203;115243;-78
2021/06/16 07:35:23;;;;;;;7.00;2.50;;;;;;;19.99;75.71;100939.80;714420;1202;114229;-81
2021/06/16 07:50:27;;;;;;;4.15;1.70;;;;;;;20.36;73.54;100924.75;714314;1205;113805;-80
2021/06/16 08:05:29;;;;;;;4.80;1.50;;;;;;;21.55;73.28;100930.84;714324;1203;113818;-80
2021/06/16 08:20:32;;;;;;;5.20;1.50;;;;;;;22.59;71.46;100937.31;713961;1202;113700;-78
2021/06/16 08:35:34;;;;;;;7.47;1.40;;;;;;;22.53;66.77;100924.76;714097;1205;115115;-78
2021/06/16 08:50:38;;;;;;;3.45;1.50;;;;;;;23.57;64.91;100928.08;714508;1203;113710;-77
2021/06/16 09:05:41;;;;;;;5.10;1.35;;;;;;;24.07;63.43;100920.47;714419;1200;115457;-77
2021/06/16 09:20:47;;;;;;;4.23;1.50;;;;;;;24.84;62.37;100916.30;714229;1200;115053;-74
2021/06/16 09:35:50;;;;;;;3.78;1.40;;;;;;;25.40;60.01;100918.23;714245;1200;114854;-78
2021/06/16 09:51:07;;;;;;;2.73;1.13;;;;;;;26.06;58.36;100918.70;714388;1202;114330;-71
2021/06/16 10:06:16;;;;;;;6.88;1.20;;;;;;;25.83;55.94;100924.67;713943;1205;114060;-74
2021/06/16 10:21:20;;;;;;;4.73;1.50;;;;;;;25.94;55.70;100922.30;714339;1202;114782;-73
2021/06/16 10:36:23;;;;;;;4.40;1.40;;;;;;;26.64;55.67;100907.67;714250;1205;114771;-74
2021/06/16 10:51:38;;;;;;;3.93;1.63;;;;;;;26.55;54.82;100910.68;714295;1205;113687;-75
2021/06/16 11:06:40;;;;;;;5.58;1.53;;;;;;;27.59;53.34;100902.58;714340;1205;113984;-78
2021/06/16 11:21:43;;;;;;;3.58;1.08;;;;;;;28.09;53.60;100903.98;714513;1202;114583;-73
2021/06/16 11:36:45;;;;;;;5.85;1.40;;;;;;;28.66;52.76;100901.36;716517;1203;113844;-74
2021/06/16 11:51:56;;;;;;;5.05;1.40;;;;;;;29.18;52.71;100889.59;721343;1202;114185;-75
2021/06/16 12:06:58;;;;;;;7.23;2.93;;;;;;;28.15;51.19;100882.28;716830;1204;115045;-76
2021/06/16 12:22:03;;;;;;;3.25;1.40;;;;;;;28.55;51.50;100867.14;713989;1202;115541;-75
2021/06/16 12:37:16;;;;;;;2.20;1.20;;;;;;;28.72;50.02;100859.92;713916;1202;114071;-76
2021/06/16 12:52:37;;;;;;;6.53;1.30;;;;;;;29.24;50.25;100855.37;714488;1200;114060;-75
2021/06/16 13:07:54;;;;;;;5.28;1.63;;;;;;;29.15;49.67;100843.34;714253;1201;113815;-74
2021/06/16 13:22:58;;;;;;;4.10;1.50;;;;;;;29.53;49.13;100839.88;714308;1205;114246;-75
2021/06/16 13:38:00;;;;;;;5.10;1.58;;;;;;;29.36;48.11;100825.59;715883;1184;114120;-86
2021/06/16 13:53:03;;;;;;;3.20;1.35;;;;;;;29.40;47.66;100809.72;716154;1205;113792;-85
2021/06/16 14:08:25;;;;;;;3.80;1.30;;;;;;;29.28;47.85;100805.22;715824;1201;113829;-81
2021/06/16 14:23:28;;;;;;;5.08;1.43;;;;;;;29.48;48.32;100811.98;716473;1202;115237;-81
2021/06/16 14:38:30;;;;;;;3.50;1.47;;;;;;;29.16;47.59;100807.17;716227;1179;113869;-81
2021/06/16 14:53:32;;;;;;;4.63;1.33;;;;;;;28.88;46.71;100790.81;715856;1202;115385;-81
2021/06/16 15:08:34;;;;;;;5.97;1.97;;;;;;;28.31;47.51;100783.61;715892;1200;113796;-82
2021/06/16 15:23:37;;;;;;;3.43;1.17;;;;;;;28.15;46.81;100773.58;716506;1202;114442;-81
2021/06/16 15:38:40;;;;;;;21.55;14.25;;;;;;;27.65;46.24;100762.34;719394;1202;114494;-81
2021/06/16 15:53:44;;;;;;;4.13;2.20;;;;;;;27.63;46.47;100761.75;717361;1205;114535;-74
2021/06/16 16:08:46;;;;;;;2.68;1.73;;;;;;;27.28;46.33;100767.16;714326;1201;114220;-73
2021/06/16 16:23:49;;;;;;;3.38;2.33;;;;;;;27.02;45.94;100767.39;714701;1179;114172;-72
2021/06/16 16:38:51;;;;;;;2.53;1.83;;;;;;;27.00;46.62;100765.98;715016;1200;114923;-73
2021/06/16 16:53:53;;;;;;;3.38;1.40;;;;;;;26.49;46.62;100755.58;714485;1200;114355;-74
2021/06/16 17:08:55;;;;;;;7.70;3.00;;;;;;;26.44;47.58;100752.76;714069;1179;113860;-74
2021/06/16 17:23:58;;;;;;;5.90;3.20;;;;;;;26.10;48.10;100748.90;714113;1206;114403;-72
2021/06/16 17:39:00;;;;;;;4.53;2.93;;;;;;;25.58;48.97;100756.30;713923;1180;114120;-74
2021/06/16 17:54:02;;;;;;;5.30;1.80;;;;;;;25.30;49.45;100763.99;713825;1203;114556;-72
2021/06/16 18:09:06;;;;;;;3.40;1.80;;;;;;;24.83;51.05;100773.27;714166;1205;114523;-71
2021/06/16 18:24:09;;;;;;;5.53;2.35;;;;;;;24.12;52.27;100766.27;714211;1205;115058;-72
2021/06/16 18:39:12;;;;;;;5.70;3.40;;;;;;;23.45;55.16;100771.80;714375;1178;114979;-73
2021/06/16 18:54:24;;;;;;;15.57;7.53;;;;;;;22.59;57.89;100784.92;714226;1200;114414;-71
2021/06/16 19:09:27;;;;;;;31.55;15.43;;;;;;;21.76;61.35;100802.67;714066;1200;114334;-73
2021/06/16 19:24:29;;;;;;;23.30;13.77;;;;;;;21.04;64.05;100814.44;714169;1177;114763;-72
2021/06/16 19:39:32;;;;;;;14.78;7.75;;;;;;;20.32;65.08;100824.09;714426;1178;114585;-72
2021/06/16 19:54:34;;;;;;;51.90;23.78;;;;;;;19.89;68.40;100835.43;716760;1203;114661;-73
2021/06/16 20:09:37;;;;;;;29.40;12.50;;;;;;;19.64;70.39;100843.63;714124;1203;114512;-73
2021/06/16 20:24:39;;;;;;;81.83;25.80;;;;;;;19.41;72.27;100870.27;713990;1177;114180;-75
2021/06/16 20:39:41;;;;;;;29.75;14.83;;;;;;;19.14;73.88;100877.80;713940;1203;116007;-75
2021/06/16 20:54:43;;;;;;;20.77;10.50;;;;;;;18.88;77.08;100886.08;713905;1202;114720;-74
2021/06/16 21:09:46;;;;;;;21.58;9.00;;;;;;;18.62;78.90;100897.83;714086;1202;115164;-74
2021/06/16 21:24:49;;;;;;;9.53;5.27;;;;;;;18.07;81.90;100902.19;713910;1202;115251;-74
2021/06/16 21:39:52;;;;;;;18.73;8.30;;;;;;;18.01;84.21;100914.29;714394;1179;113674;-74
2021/06/16 21:54:54;;;;;;;12.25;5.05;;;;;;;17.65;87.67;100911.98;713907;1178;113877;-74
2021/06/16 22:09:56;;;;;;;13.07;6.30;;;;;;;17.54;89.43;100921.11;713798;1206;114960;-74
2021/06/16 22:24:59;;;;;;;19.80;10.77;;;;;;;17.29;90.49;100929.05;713837;1201;114485;-74
2021/06/16 22:40:03;;;;;;;14.73;6.58;;;;;;;17.09;91.42;100922.37;714730;1178;114922;-76
2021/06/16 22:55:06;;;;;;;16.70;8.00;;;;;;;16.77;92.97;100926.56;717080;1202;113879;-75
2021/06/16 23:10:12;;;;;;;10.63;5.63;;;;;;;16.43;95.24;100922.11;714401;1177;114004;-75
2021/06/16 23:25:16;;;;;;;9.33;5.45;;;;;;;16.31;96.34;100918.91;714358;1202;114076;-74
2021/06/16 23:40:19;;;;;;;23.63;11.27;;;;;;;15.91;96.89;100922.97;714290;1177;114855;-74
2021/06/16 23:55:21;;;;;;;16.77;8.30;;;;;;;15.55;98.03;100909.78;713675;1177;114689;-74
